sensor_id;sensor_type;location;lat;lon;timestamp;P1;durP1;ratioP1;P2;durP2;ratioP2
1677;SDS011;6034;46.864;15.216;2023-02-13T06:00:24;9.45;;;5.13;;
1677;SDS011;6034;46.864;15.216;2023-02-13T06:02:52;4.72;;;3.75;;
1677;SDS011;6034;46.864;15.216;2023-02-13T06:05:19;4.63;;;3.78;;
1677;SDS011;6034;46.864;15.216;2023-02-13T06:07:47;7.10;;;2.95;;
1677;SDS011;6034;46.864;15.216;2023-02-13T06:10:14;4.47;;;3.13;;
1677;SDS011;6034;46.864;15.216;2023-02-13T06:12:42;3.45;;;2.65;;
1677;SDS011;6034;46.864;15.216;2023-02-13T06:15:09;6.20;;;3.53;;
1677;SDS011;6034;46.864;15.216;2023-02-13T06:17:38;4.63;;;2.92;;
1677;SDS011;6034;46.864;15.216;2023-02-13T06:20:06;6.65;;;3.00;;
1677;SDS011;6034;46.864;15.216;2023-02-13T06:22:34;5.70;;;3.00;;
1677;SDS011;6034;46.864;15.216;2023-02-13T06:25:02;5.07;;;2.80;;
1677;SDS011;6034;46.864;15.216;2023-02-13T06:27:29;3.60;;;2.72;;
1677;SDS011;6034;46.864;15.216;2023-02-13T06:29:57;3.97;;;3.38;;
1677;SDS011;6034;46.864;15.216;2023-02-13T06:32:24;4.20;;;3.08;;
1677;SDS011;6034;46.864;15.216;2023-02-13T06:34:53;5.18;;;3.40;;
1677;SDS011;6034;46.864;15.216;2023-02-13T06:37:20;4.00;;;3.22;;
1677;SDS011;6034;46.864;15.216;2023-02-13T06:39:47;4.95;;;3.30;;
1677;SDS011;6034;46.864;15.216;2023-02-13T06:42:15;4.20;;;2.92;;
1677;SDS011;6034;46.864;15.216;2023-02-13T06:44:43;4.82;;;2.65;;
1677;SDS011;6034;46.864;15.216;2023-02-13T06:47:10;3.75;;;2.75;;
1677;SDS011;6034;46.864;15.216;2023-02-13T06:49:38;3.45;;;2.90;;
1677;SDS011;6034;46.864;15.216;2023-02-13T06:52:07;4.35;;;2.92;;
1677;SDS011;6034;46.864;15.216;2023-02-13T06:54:37;5.35;;;3.90;;
1677;SDS011;6034;46.864;15.216;2023-02-13T06:57:04;3.90;;;3.50;;
1677;SDS011;6034;46.864;15.216;2023-02-13T06:59:32;4.93;;;3.42;;
1677;SDS011;6034;46.864;15.216;2023-02-13T07:01:59;4.40;;;3.30;;
1677;SDS011;6034;46.864;15.216;2023-02-13T07:04:26;3.55;;;2.80;;
1677;SDS011;6034;46.864;15.216;2023-02-13T07:06:54;4.20;;;3.10;;
1677;SDS011;6034;46.864;15.216;2023-02-13T07:09:23;3.85;;;2.40;;
1677;SDS011;6034;46.864;15.216;2023-02-13T07:11:50;6.60;;;3.70;;
1677;SDS011;6034;46.864;15.216;2023-02-13T07:14:18;4.43;;;3.00;;
1677;SDS011;6034;46.864;15.216;2023-02-13T07:16:45;5.30;;;3.83;;
1677;SDS011;6034;46.864;15.216;2023-02-13T07:19:12;5.35;;;3.05;;
1677;SDS011;6034;46.864;15.216;2023-02-13T07:21:40;4.90;;;2.63;;
1677;SDS011;6034;46.864;15.216;2023-02-13T07:24:07;5.10;;;3.38;;
1677;SDS011;6034;46.864;15.216;2023-02-13T07:26:36;4.05;;;3.00;;
1677;SDS011;6034;46.864;15.216;2023-02-13T07:29:03;6.80;;;4.15;;
1677;SDS011;6034;46.864;15.216;2023-02-13T07:31:31;3.85;;;3.40;;
1677;SDS011;6034;46.864;15.216;2023-02-13T07:33:59;4.57;;;3.30;;
1677;SDS011;6034;46.864;15.216;2023-02-13T07:36:26;4.05;;;3.42;;
1677;SDS011;6034;46.864;15.216;2023-02-13T07:38:54;4.88;;;3.40;;
1677;SDS011;6034;46.864;15.216;2023-02-13T07:41:21;6.07;;;4.10;;
1677;SDS011;6034;46.864;15.216;2023-02-13T07:43:52;3.92;;;3.42;;
1677;SDS011;6034;46.864;15.216;2023-02-13T07:46:19;6.30;;;4.55;;
1677;SDS011;6034;46.864;15.216;2023-02-13T07:48:47;4.93;;;4.18;;
1677;SDS011;6034;46.864;15.216;2023-02-13T07:51:14;9.25;;;3.70;;
1677;SDS011;6034;46.864;15.216;2023-02-13T07:53:41;5.78;;;4.15;;
1677;SDS011;6034;46.864;15.216;2023-02-13T07:56:09;5.75;;;4.30;;
1677;SDS011;6034;46.864;15.216;2023-02-13T07:58:36;4.75;;;3.40;;
1677;SDS011;6034;46.864;15.216;2023-02-13T08:01:07;4.00;;;3.20;;
1677;SDS011;6034;46.864;15.216;2023-02-13T08:03:36;4.88;;;3.40;;
1677;SDS011;6034;46.864;15.216;2023-02-13T08:06:03;3.80;;;3.30;;
1677;SDS011;6034;46.864;15.216;2023-02-13T08:08:31;4.93;;;3.40;;
1677;SDS011;6034;46.864;15.216;2023-02-13T08:11:02;5.22;;;3.45;;
1677;SDS011;6034;46.864;15.216;2023-02-13T08:13:48;4.97;;;3.80;;
1677;SDS011;6034;46.864;15.216;2023-02-13T08:16:17;4.43;;;4.03;;
1677;SDS011;6034;46.864;15.216;2023-02-13T08:18:44;5.57;;;3.97;;
1677;SDS011;6034;46.864;15.216;2023-02-13T08:21:12;5.60;;;3.92;;
1677;SDS011;6034;46.864;15.216;2023-02-13T08:23:40;5.55;;;4.22;;
1677;SDS011;6034;46.864;15.216;2023-02-13T08:26:07;5.65;;;3.78;;
1677;SDS011;6034;46.864;15.216;2023-02-13T08:28:35;4.72;;;3.70;;
1677;SDS011;6034;46.864;15.216;2023-02-13T08:31:08;8.23;;;4.30;;
1677;SDS011;6034;46.864;15.216;2023-02-13T08:33:38;4.93;;;4.10;;
1677;SDS011;6034;46.864;15.216;2023-02-13T08:36:05;4.57;;;3.65;;
1677;SDS011;6034;46.864;15.216;2023-02-13T08:38:33;7.40;;;4.05;;
1677;SDS011;6034;46.864;15.216;2023-02-13T08:41:01;6.43;;;3.97;;
1677;SDS011;6034;46.864;15.216;2023-02-13T08:43:28;7.53;;;4.13;;
1677;SDS011;6034;46.864;15.216;2023-02-13T08:45:57;4.88;;;4.25;;
1677;SDS011;6034;46.864;15.216;2023-02-13T08:48:24;7.05;;;4.88;;
1677;SDS011;6034;46.864;15.216;2023-02-13T08:50:53;6.72;;;4.70;;
1677;SDS011;6034;46.864;15.216;2023-02-13T08:53:21;5.53;;;5.00;;
1677;SDS011;6034;46.864;15.216;2023-02-13T08:55:51;6.18;;;4.68;;
1677;SDS011;6034;46.864;15.216;2023-02-13T08:58:19;5.88;;;4.32;;
1677;SDS011;6034;46.864;15.216;2023-02-13T09:00:47;5.50;;;4.47;;
1677;SDS011;6034;46.864;15.216;2023-02-13T09:03:14;6.25;;;4.30;;
1677;SDS011;6034;46.864;15.216;2023-02-13T09:05:41;5.20;;;4.40;;
1677;SDS011;6034;46.864;15.216;2023-02-13T09:08:10;5.68;;;3.78;;
1677;SDS011;6034;46.864;15.216;2023-02-13T09:10:38;7.35;;;4.03;;
1677;SDS011;6034;46.864;15.216;2023-02-13T09:13:07;5.15;;;3.60;;
1677;SDS011;6034;46.864;15.216;2023-02-13T09:15:36;5.47;;;4.00;;
1677;SDS011;6034;46.864;15.216;2023-02-13T09:18:04;6.72;;;4.25;;
1677;SDS011;6034;46.864;15.216;2023-02-13T09:20:32;5.88;;;4.15;;
1677;SDS011;6034;46.864;15.216;2023-02-13T09:22:59;4.40;;;3.95;;
1677;SDS011;6034;46.864;15.216;2023-02-13T09:25:28;7.28;;;3.63;;
1677;SDS011;6034;46.864;15.216;2023-02-13T09:27:55;4.35;;;3.28;;
1677;SDS011;6034;46.864;15.216;2023-02-13T09:30:24;5.13;;;3.92;;
1677;SDS011;6034;46.864;15.216;2023-02-13T09:32:52;5.00;;;4.38;;
1677;SDS011;6034;46.864;15.216;2023-02-13T09:35:20;6.63;;;4.00;;
1677;SDS011;6034;46.864;15.216;2023-02-13T09:37:48;5.00;;;4.35;;
1677;SDS011;6034;46.864;15.216;2023-02-13T09:40:17;8.52;;;4.90;;
1677;SDS011;6034;46.864;15.216;2023-02-13T09:42:49;7.63;;;5.20;;
1677;SDS011;6034;46.864;15.216;2023-02-13T09:45:18;10.10;;;6.32;;
1677;SDS011;6034;46.864;15.216;2023-02-13T09:47:47;7.77;;;5.40;;
1677;SDS011;6034;46.864;15.216;2023-02-13T09:50:17;5.90;;;4.50;;
1677;SDS011;6034;46.864;15.216;2023-02-13T09:52:47;6.22;;;4.50;;
1677;SDS011;6034;46.864;15.216;2023-02-13T09:55:17;5.75;;;4.50;;
1677;SDS011;6034;46.864;15.216;2023-02-13T10:00:21;6.65;;;4.47;;
1677;SDS011;6034;46.864;15.216;2023-02-13T10:05:48;9.77;;;4.90;;
1677;SDS011;6034;46.864;15.216;2023-02-13T10:08:27;6.22;;;3.83;;
1677;SDS011;6034;46.864;15.216;2023-02-13T10:11:11;5.10;;;4.28;;
1677;SDS011;6034;46.864;15.216;2023-02-13T10:13:57;5.78;;;4.88;;
1677;SDS011;6034;46.864;15.216;2023-02-13T10:16:32;5.85;;;4.45;;
1677;SDS011;6034;46.864;15.216;2023-02-13T10:19:03;8.32;;;3.90;;
1677;SDS011;6034;46.864;15.216;2023-02-13T10:26:38;5.22;;;4.72;;
1677;SDS011;6034;46.864;15.216;2023-02-13T10:29:14;5.45;;;4.88;;
1677;SDS011;6034;46.864;15.216;2023-02-13T10:32:04;6.90;;;4.45;;
1677;SDS011;6034;46.864;15.216;2023-02-13T10:34:37;5.28;;;3.80;;
1677;SDS011;6034;46.864;15.216;2023-02-13T10:37:11;9.05;;;4.03;;
1677;SDS011;6034;46.864;15.216;2023-02-13T10:39:42;5.63;;;4.05;;
1677;SDS011;6034;46.864;15.216;2023-02-13T10:42:13;6.53;;;5.10;;
1677;SDS011;6034;46.864;15.216;2023-02-13T10:44:56;7.32;;;4.05;;
1677;SDS011;6034;46.864;15.216;2023-02-13T10:47:40;6.60;;;4.60;;
1677;SDS011;6034;46.864;15.216;2023-02-13T10:50:20;5.55;;;3.63;;
1677;SDS011;6034;46.864;15.216;2023-02-13T10:52:56;4.65;;;4.25;;
1677;SDS011;6034;46.864;15.216;2023-02-13T10:55:48;4.82;;;3.85;;
1677;SDS011;6034;46.864;15.216;2023-02-13T10:58:41;5.20;;;3.80;;
1677;SDS011;6034;46.864;15.216;2023-02-13T11:01:18;4.93;;;4.20;;
1677;SDS011;6034;46.864;15.216;2023-02-13T11:04:00;5.35;;;3.60;;
1677;SDS011;6034;46.864;15.216;2023-02-13T11:06:32;5.40;;;4.40;;
1677;SDS011;6034;46.864;15.216;2023-02-13T11:09:02;5.47;;;4.65;;
1677;SDS011;6034;46.864;15.216;2023-02-13T11:11:32;5.20;;;4.10;;
1677;SDS011;6034;46.864;15.216;2023-02-13T11:14:08;6.70;;;4.55;;
1677;SDS011;6034;46.864;15.216;2023-02-13T11:19:29;5.03;;;3.83;;
1677;SDS011;6034;46.864;15.216;2023-02-13T11:22:00;4.05;;;3.53;;
1677;SDS011;6034;46.864;15.216;2023-02-13T11:24:30;5.10;;;4.03;;
1677;SDS011;6034;46.864;15.216;2023-02-13T11:26:58;5.05;;;3.88;;
1677;SDS011;6034;46.864;15.216;2023-02-13T11:29:30;6.35;;;4.75;;
1677;SDS011;6034;46.864;15.216;2023-02-13T11:32:18;5.05;;;4.20;;
1677;SDS011;6034;46.864;15.216;2023-02-13T11:34:47;8.63;;;4.53;;
1677;SDS011;6034;46.864;15.216;2023-02-13T11:37:17;5.30;;;4.55;;
1677;SDS011;6034;46.864;15.216;2023-02-13T11:39:47;5.55;;;4.70;;
1677;SDS011;6034;46.864;15.216;2023-02-13T11:42:18;5.35;;;4.10;;
1677;SDS011;6034;46.864;15.216;2023-02-13T11:44:51;6.80;;;4.57;;
1677;SDS011;6034;46.864;15.216;2023-02-13T11:47:33;7.15;;;4.53;;
1677;SDS011;6034;46.864;15.216;2023-02-13T11:50:05;5.60;;;3.97;;
1677;SDS011;6034;46.864;15.216;2023-02-13T11:52:51;4.03;;;3.63;;
1677;SDS011;6034;46.864;15.216;2023-02-13T11:55:26;5.88;;;4.50;;
1677;SDS011;6034;46.864;15.216;2023-02-13T11:57:56;6.28;;;4.00;;
1677;SDS011;6034;46.864;15.216;2023-02-13T12:00:27;4.75;;;3.90;;
1677;SDS011;6034;46.864;15.216;2023-02-13T12:03:02;5.00;;;4.50;;
